.
WxDataArchive / Data Records for 2011-06-06
2011-06-05 June 2011 2011-06-07

Data Records for Monday, 06 June 2011

Time	Temp	Chill	HIndex	Humid	Dewpt	 Wind 	HiWind	WindDir	Rain 	Barom 
-----	----	-----	------	-----	-----	------	------	-------	-----	----- 
00:00	67.6	67.6	67.6	67	56.2	0	0	---	0.00	30.042 
00:05	67.3	67.3	67.3	68	56.4	0	0	---	0.00	30.042 
00:10	67.1	67.1	67.1	69	56.6	0	0	---	0.00	30.042 
00:15	66.8	66.8	66.8	69	56.3	0	0	---	0.00	30.042 
00:20	66.4	66.4	66.4	70	56.3	0	0	---	0.00	30.042 
00:25	66.3	66.3	66.3	70	56.2	0	0	---	0.00	30.042 
00:30	66.0	66.0	66.0	70	55.9	0	0	---	0.00	30.038 
00:35	65.8	65.8	65.8	69	55.3	0	0	---	0.00	30.038 
00:40	65.6	65.6	65.6	70	55.5	0	0	---	0.00	30.038 
00:45	65.3	65.3	65.3	72	56.0	0	0	---	0.00	30.036 
00:50	65.2	65.2	65.2	71	55.6	0	0	---	0.00	30.036 
00:55	65.0	65.0	65.0	71	55.4	0	0	---	0.00	30.036 
01:00	64.8	64.8	64.8	72	55.6	0	0	---	0.00	30.033 
01:05	64.5	64.5	64.5	72	55.3	0	0	---	0.00	30.033 
01:10	64.3	64.3	64.3	72	55.1	0	0	---	0.00	30.033 
01:15	64.2	64.2	64.2	72	55.0	0	0	---	0.00	30.030 
01:20	63.9	63.9	63.9	73	55.1	0	0	---	0.00	30.030 
01:25	63.5	63.5	63.5	73	54.7	0	0	---	0.00	30.030 
01:30	63.4	63.4	63.4	74	55.0	0	0	---	0.00	30.028 
01:35	63.2	63.2	63.2	75	55.1	0	0	---	0.00	30.028 
01:40	62.9	62.9	62.9	75	54.8	0	0	---	0.00	30.028 
01:45	62.7	62.7	62.7	76	55.0	0	0	---	0.00	30.026 
01:50	62.6	62.6	62.6	76	54.9	0	0	---	0.00	30.026 
01:55	62.4	62.4	62.4	76	54.7	0	0	---	0.00	30.026 
02:00	62.3	62.3	62.3	77	55.0	0	0	---	0.00	30.019 
02:05	62.1	62.1	62.1	78	55.2	0	0	---	0.00	30.019 
02:10	61.8	61.8	61.8	78	54.9	0	0	---	0.00	30.019 
02:15	61.6	61.6	61.6	79	55.0	0	0	---	0.00	30.015 
02:20	61.5	61.5	61.5	79	54.9	0	0	---	0.00	30.015 
02:25	61.3	61.3	61.3	80	55.1	0	0	---	0.00	30.015 
02:30	61.0	61.0	61.0	81	55.1	0	0	---	0.00	30.014 
02:35	60.7	60.7	60.7	81	54.8	0	0	---	0.00	30.014 
02:40	60.5	60.5	60.5	81	54.6	0	0	---	0.00	30.014 
02:45	60.4	60.4	60.4	82	54.9	0	0	---	0.00	30.015 
02:50	60.1	60.1	60.1	83	54.9	0	0	---	0.00	30.015 
02:55	59.9	59.9	59.9	83	54.7	0	0	---	0.00	30.015 
03:00	59.8	59.8	59.8	84	55.0	0	0	---	0.00	30.016 
03:05	59.6	59.6	59.6	84	54.8	0	0	---	0.00	30.016 
03:10	59.5	59.5	59.5	84	54.7	0	0	---	0.00	30.016 
03:15	59.3	59.3	59.3	85	54.8	0	0	---	0.00	30.015 
03:20	59.2	59.2	59.2	85	54.7	0	0	---	0.00	30.015 
03:25	59.0	59.0	59.0	86	54.8	0	0	---	0.00	30.015 
03:30	58.9	58.9	58.9	86	54.7	0	0	---	0.00	30.014 
03:35	58.9	58.9	58.9	87	55.0	0	0	---	0.00	30.014 
03:40	58.7	58.7	58.7	87	54.8	0	0	---	0.00	30.014 
03:45	58.6	58.6	58.6	88	55.1	0	0	---	0.00	30.010 
03:50	58.4	58.4	58.4	88	54.9	0	0	---	0.00	30.010 
03:55	58.4	58.4	58.4	88	54.9	0	0	---	0.00	30.010 
04:00	58.3	58.3	58.3	88	54.8	0	0	---	0.00	30.008 
04:05	58.1	58.1	58.1	88	54.6	0	0	---	0.00	30.008 
04:10	58.0	58.0	58.0	89	54.8	0	0	---	0.00	30.008 
04:15	57.8	57.8	57.8	89	54.6	0	0	---	0.00	30.004 
04:20	57.6	57.6	57.6	89	54.4	0	0	---	0.00	30.004 
04:25	57.6	57.6	57.6	89	54.4	0	0	---	0.00	30.004 
04:30	57.5	57.5	57.5	89	54.3	0	0	---	0.00	30.003 
04:35	57.3	57.3	57.3	89	54.1	0	0	---	0.00	30.003 
04:40	57.3	57.3	57.3	90	54.4	0	0	---	0.00	30.003 
04:45	57.2	57.2	57.2	90	54.3	0	0	---	0.00	30.011 
04:50	57.2	57.2	57.2	90	54.3	0	0	---	0.00	30.011 
04:55	57.2	57.2	57.2	91	54.6	0	0	---	0.00	30.011 
05:00	57.2	57.2	57.2	91	54.6	0	0	---	0.00	30.014 
05:05	57.2	57.2	57.2	91	54.6	0	1	315	0.00	30.014 
05:10	57.2	57.2	57.2	91	54.6	0	0	---	0.00	30.014 
05:15	57.2	57.2	57.2	91	54.6	0	0	---	0.00	30.014 
05:20	57.2	57.2	57.2	91	54.6	0	0	---	0.00	30.014 
05:25	57.0	57.0	57.0	91	54.4	0	0	---	0.00	30.014 
05:30	57.0	57.0	57.0	91	54.4	0	0	---	0.00	30.016 
05:35	57.0	57.0	57.0	91	54.4	0	0	---	0.00	30.016 
05:40	56.9	56.9	56.9	91	54.3	0	0	---	0.00	30.016 
05:45	56.9	56.9	56.9	91	54.3	0	0	---	0.00	30.015 
05:50	56.7	56.7	56.7	91	54.1	0	0	---	0.00	30.015 
05:55	56.7	56.7	56.7	91	54.1	0	0	---	0.00	30.015 
06:00	56.7	56.7	56.7	91	54.1	0	0	---	0.00	30.016 
06:05	56.7	56.7	56.7	91	54.1	0	0	---	0.00	30.016 
06:10	56.6	56.6	56.6	91	54.0	0	0	---	0.00	30.016 
06:15	56.6	56.6	56.6	91	54.0	0	0	---	0.00	30.015 
06:20	56.5	56.5	56.5	91	53.9	0	0	---	0.00	30.015 
06:25	56.5	56.5	56.5	91	53.9	0	0	---	0.00	30.015 
06:30	56.5	56.5	56.5	92	54.2	0	0	---	0.00	30.009 
06:35	56.5	56.5	56.5	92	54.2	0	0	---	0.00	30.009 
06:40	56.5	56.5	56.5	92	54.2	0	0	---	0.00	30.009 
06:45	56.5	56.5	56.5	92	54.2	0	0	---	0.00	30.017 
06:50	56.6	56.6	56.6	92	54.3	0	0	---	0.00	30.017 
06:55	56.7	56.7	56.7	92	54.4	0	0	---	0.00	30.017 
07:00	56.9	56.9	56.9	92	54.6	0	0	---	0.00	30.019 
07:05	57.0	57.0	57.0	92	54.7	0	0	---	0.00	30.019 
07:10	57.3	57.3	57.3	92	55.0	0	0	---	0.00	30.019 
07:15	57.5	57.5	57.5	92	55.2	0	0	---	0.00	30.022 
07:20	58.1	58.1	58.1	92	55.8	0	0	---	0.00	30.022 
07:25	58.7	58.7	58.7	92	56.4	0	0	---	0.00	30.022 
07:30	59.3	59.3	59.3	91	56.7	0	0	---	0.00	30.020 
07:35	59.9	59.9	59.9	90	57.0	0	0	---	0.00	30.020 
07:40	60.7	60.7	60.7	88	57.1	0	0	---	0.00	30.020 
07:45	61.5	61.5	61.5	87	57.6	0	0	---	0.00	30.022 
07:50	62.3	62.3	62.3	85	57.7	0	0	---	0.00	30.022 
07:55	63.1	63.1	63.1	83	57.8	0	0	---	0.00	30.022 
08:00	63.9	63.9	63.9	81	57.9	0	0	---	0.00	30.019 
08:05	64.5	64.5	64.5	77	57.1	0	0	---	0.00	30.019 
08:10	65.3	65.3	65.3	75	57.2	0	0	---	0.00	30.019 
08:15	66.1	66.1	66.1	75	57.9	0	0	---	0.00	30.022 
08:20	67.1	67.1	67.1	66	55.4	0	0	---	0.00	30.022 
08:25	68.4	68.4	68.4	63	55.3	0	0	---	0.00	30.022 
08:30	69.6	69.6	69.6	59	54.6	0	0	---	0.00	30.019 
08:35	70.6	70.6	70.6	61	56.5	0	0	---	0.00	30.019 
08:40	71.3	71.3	71.3	59	56.2	0	0	---	0.00	30.019 
08:45	72.3	72.3	72.3	56	55.7	0	0	---	0.00	30.015 
08:50	72.8	72.8	72.8	55	55.7	0	0	---	0.00	30.015 
08:55	73.3	73.3	73.3	55	56.1	0	0	---	0.00	30.015 
09:00	74.0	74.0	74.0	54	56.3	0	0	---	0.00	30.018 
09:05	74.7	74.7	74.7	53	56.4	0	0	---	0.00	30.018 
09:10	74.7	74.7	74.7	53	56.4	0	0	---	0.00	30.018 
09:15	74.6	74.6	74.6	54	56.8	0	0	---	0.00	30.021 
09:20	75.3	75.3	77.7	52	56.4	0	0	---	0.00	30.021 
09:25	76.0	76.0	78.1	54	58.1	0	0	---	0.00	30.021 
09:30	76.0	76.0	78.1	53	57.6	0	0	---	0.00	30.019 
09:35	75.6	75.6	77.9	53	57.2	0	0	---	0.00	30.019 
09:40	76.1	76.1	78.1	50	56.1	0	1	45	0.00	30.019 
09:45	76.7	76.7	78.4	50	56.6	0	3	45	0.00	30.016 
09:50	77.0	77.0	78.5	48	55.8	0	3	68	0.00	30.016 
09:55	77.4	77.4	78.8	48	56.1	0	1	68	0.00	30.016 
10:00	77.7	77.7	78.9	48	56.4	1	3	68	0.00	30.022 
10:05	78.1	78.1	79.0	45	55.0	0	2	68	0.00	30.022 
10:10	78.5	78.5	79.5	48	57.2	0	1	68	0.00	30.022 
10:15	79.0	79.0	79.5	43	54.6	0	1	68	0.00	30.017 
10:20	79.4	79.4	79.8	44	55.6	0	1	68	0.00	30.017 
10:25	79.8	79.8	80.0	42	54.6	0	1	68	0.00	30.017 
10:30	80.1	80.1	80.1	41	54.2	0	1	68	0.00	30.018 
10:35	80.9	80.9	80.8	42	55.6	0	1	68	0.00	30.018 
10:40	81.1	81.1	80.8	41	55.1	0	1	68	0.00	30.018 
10:45	81.4	81.4	81.1	41	55.4	0	2	68	0.00	30.020 
10:50	81.8	81.8	81.5	42	56.4	0	1	68	0.00	30.020 
10:55	82.0	82.0	81.6	41	55.9	0	0	---	0.00	30.020 
11:00	82.4	82.4	82.2	43	57.6	0	0	---	0.00	30.015 
11:05	82.2	82.2	82.1	44	58.1	0	2	45	0.00	30.015 
11:10	82.2	82.2	81.6	40	55.4	0	2	270	0.00	30.015 
11:15	81.2	81.2	81.0	42	55.9	0	3	270	0.00	30.017 
11:20	81.4	81.4	81.3	43	56.7	0	1	270	0.00	30.017 
11:25	82.0	82.0	81.6	41	55.9	0	2	270	0.00	30.017 
11:30	82.6	82.6	82.4	43	57.8	0	2	270	0.00	30.016 
11:35	82.6	82.6	81.8	39	55.1	1	2	270	0.00	30.016 
11:40	82.8	82.8	82.3	41	56.7	0	2	270	0.00	30.016 
11:45	83.0	83.0	82.3	40	56.2	0	2	270	0.00	30.014 
11:50	83.4	83.4	82.6	39	55.8	1	2	270	0.00	30.014 
11:55	83.8	83.8	82.9	39	56.2	0	2	270	0.00	30.014 
12:00	84.0	84.0	83.4	41	57.7	0	2	270	0.00	30.008 
12:05	84.0	84.0	83.0	38	55.6	0	2	270	0.00	30.008 
12:10	84.0	84.0	83.4	41	57.7	1	3	270	0.00	30.008 
12:15	84.0	84.0	83.1	39	56.3	0	2	270	0.00	30.011 
12:20	84.0	84.0	83.3	40	57.0	0	3	270	0.00	30.011 
12:25	83.6	83.6	82.5	37	54.5	1	3	270	0.00	30.011 
12:30	83.6	83.6	82.6	38	55.3	1	3	270	0.00	30.010 
12:35	83.6	83.6	82.9	40	56.7	0	2	270	0.00	30.010 
12:40	84.0	84.0	83.0	38	55.6	1	3	270	0.00	30.010 
12:45	84.3	84.3	83.0	36	54.4	1	3	270	0.00	30.011 
12:50	84.9	84.9	83.7	37	55.7	1	3	270	0.00	30.011 
12:55	84.9	84.9	83.4	35	54.2	1	4	270	0.00	30.011 
13:00	84.9	84.9	83.6	36	54.9	0	2	270	0.00	30.000 
13:05	85.3	85.3	84.3	38	56.8	1	2	270	0.00	30.000 
13:10	85.7	85.7	84.4	36	55.6	1	2	270	0.00	30.000 
13:15	85.9	85.9	83.8	31	51.7	1	4	270	0.00	29.997 
13:20	86.1	86.1	84.6	35	55.2	0	1	270	0.00	29.997 
13:25	86.3	86.3	84.5	33	53.8	0	2	270	0.00	29.997 
13:30	85.9	85.9	84.2	34	54.2	1	2	270	0.00	29.992 
13:35	85.3	85.3	83.8	35	54.5	1	3	270	0.00	29.992 
13:40	85.5	85.5	84.2	36	55.5	0	1	270	0.00	29.992 
13:45	85.7	85.7	84.4	36	55.6	1	3	270	0.00	29.986 
13:50	85.9	85.9	84.1	33	53.4	1	4	90	0.00	29.986 
13:55	86.3	86.3	84.8	35	55.4	0	1	90	0.00	29.986 
14:00	86.5	86.5	84.7	33	53.9	0	2	90	0.00	29.975 
14:05	87.0	87.0	85.8	36	56.8	1	3	292	0.00	29.975 
14:10	86.7	86.7	84.9	33	54.1	1	3	292	0.00	29.975 
14:15	86.5	86.5	85.2	36	56.3	1	3	292	0.00	29.975 
14:20	86.1	86.1	84.4	34	54.4	1	3	292	0.00	29.975 
14:25	86.3	86.3	84.8	35	55.4	0	3	315	0.00	29.975 
14:30	86.5	86.5	85.2	36	56.3	0	2	315	0.00	29.972 
14:35	86.5	86.5	85.0	35	55.6	1	3	315	0.00	29.972 
14:40	86.5	86.5	85.0	35	55.6	1	3	292	0.00	29.972 
14:45	86.5	86.5	85.0	35	55.6	1	3	292	0.00	29.975 
14:50	86.1	86.1	84.3	33	53.6	1	3	292	0.00	29.975 
14:55	85.9	85.9	84.2	34	54.2	1	3	270	0.00	29.975 
15:00	85.5	85.5	84.2	36	55.5	1	4	270	0.00	29.971 
15:05	85.5	85.5	84.3	37	56.2	1	3	270	0.00	29.971 
15:10	85.5	85.5	84.9	40	58.4	0	3	292	0.00	29.971 
15:15	85.3	85.3	84.0	36	55.3	1	3	292	0.00	29.972 
15:20	85.1	85.1	84.3	39	57.3	1	3	292	0.00	29.972 
15:25	85.1	85.1	84.6	41	58.7	1	2	292	0.00	29.972 
15:30	85.3	85.3	84.3	38	56.8	1	3	292	0.00	29.969 
15:35	85.3	85.3	84.5	39	57.5	1	2	292	0.00	29.969 
15:40	85.3	85.3	84.5	39	57.5	0	3	292	0.00	29.969 
15:45	85.1	85.1	84.1	38	56.6	0	3	112	0.00	29.954 
15:50	84.9	84.9	83.9	38	56.4	1	3	112	0.00	29.954 
15:55	84.7	84.7	83.8	39	57.0	1	2	112	0.00	29.954 
16:00	84.5	84.5	84.0	41	58.2	0	2	112	0.00	29.951 
16:05	84.5	84.5	84.1	42	58.9	0	2	112	0.00	29.951 
16:10	84.3	84.3	83.6	40	57.3	1	3	248	0.00	29.951 
16:15	84.1	84.1	83.6	41	57.8	1	2	248	0.00	29.942 
16:20	84.0	84.0	83.8	43	59.1	0	3	248	0.00	29.942 
16:25	83.8	83.8	83.4	42	58.2	1	3	270	0.00	29.942 
16:30	83.8	83.8	83.9	45	60.2	0	2	270	0.00	29.936 
16:35	84.0	84.0	84.0	44	59.7	0	2	270	0.00	29.936 
16:40	84.1	84.1	83.7	42	58.5	1	3	270	0.00	29.936 
16:45	84.3	84.3	83.9	42	58.7	1	2	270	0.00	29.934 
16:50	84.5	84.5	84.3	43	59.5	1	3	270	0.00	29.934 
16:55	84.7	84.7	84.6	43	59.7	1	4	292	0.00	29.934 
17:00	84.9	84.9	85.2	45	61.2	1	2	292	0.00	29.930 
17:05	84.9	84.9	84.8	43	59.9	1	4	270	0.00	29.930 
17:10	84.7	84.7	84.7	44	60.3	1	3	270	0.00	29.930 
17:15	84.7	84.7	84.6	43	59.7	1	3	270	0.00	29.923 
17:20	84.7	84.7	84.6	43	59.7	1	2	338	0.00	29.923 
17:25	84.9	84.9	85.0	44	60.5	1	3	315	0.00	29.923 
17:30	85.3	85.3	85.5	44	60.9	1	3	270	0.00	29.920 
17:35	85.9	85.9	85.5	41	59.4	1	3	270	0.00	29.920 
17:40	86.5	86.5	86.7	43	61.3	1	4	270	0.00	29.920 
17:45	86.5	86.5	85.8	39	58.6	1	4	315	0.00	29.919 
17:50	86.3	86.3	85.8	40	59.1	1	4	270	0.00	29.919 
17:55	86.1	86.1	86.0	42	60.3	0	2	270	0.00	29.919 
18:00	86.1	86.1	85.8	41	59.6	1	3	270	0.00	29.913 
18:05	86.1	86.1	85.8	41	59.6	0	3	270	0.00	29.913 
18:10	85.9	85.9	85.5	41	59.4	1	4	270	0.00	29.913 
18:15	85.7	85.7	85.3	41	59.3	1	4	292	0.00	29.911 
18:20	85.3	85.3	85.0	42	59.6	0	2	270	0.00	29.911 
18:25	85.3	85.3	85.2	43	60.2	1	3	270	0.00	29.911 
18:30	85.3	85.3	85.2	43	60.2	1	3	270	0.00	29.908 
18:35	85.3	85.3	85.5	44	60.9	0	3	270	0.00	29.908 
18:40	85.3	85.3	85.9	46	62.1	0	2	270	0.00	29.908 
18:45	85.1	85.1	85.0	43	60.1	1	4	270	0.00	29.906 
18:50	84.9	84.9	85.2	45	61.2	1	4	248	0.00	29.906 
18:55	84.9	84.9	85.2	45	61.2	1	4	248	0.00	29.906 
19:00	84.9	84.9	85.2	45	61.2	1	4	270	0.00	29.905 
19:05	84.7	84.7	85.0	45	61.0	1	3	248	0.00	29.905 
19:10	84.7	84.7	85.2	46	61.6	1	3	270	0.00	29.905 
19:15	84.7	84.7	85.0	45	61.0	1	3	248	0.00	29.899 
19:20	84.7	84.7	85.0	45	61.0	1	4	270	0.00	29.899 
19:25	84.5	84.5	84.7	45	60.8	1	3	248	0.00	29.899 
19:30	84.5	84.5	84.9	46	61.4	0	2	248	0.00	29.896 
19:35	84.5	84.5	84.9	46	61.4	0	2	248	0.00	29.896 
19:40	84.5	84.5	84.9	46	61.4	1	3	270	0.00	29.896 
19:45	84.3	84.3	84.7	46	61.2	0	1	202	0.00	29.898 
19:50	84.1	84.1	84.3	45	60.4	1	7	270	0.00	29.898 
19:55	84.1	84.1	84.3	45	60.4	1	4	292	0.00	29.898 
20:00	84.1	84.1	84.3	45	60.4	1	3	292	0.00	29.893 
20:05	84.1	84.1	84.4	46	61.1	0	2	248	0.00	29.893 
20:10	84.0	84.0	84.3	46	61.0	0	2	248	0.00	29.893 
20:15	83.8	83.8	84.1	46	60.8	0	1	248	0.00	29.883 
20:20	83.6	83.6	83.9	46	60.6	0	2	248	0.00	29.883 
20:25	83.4	83.4	83.8	47	61.0	0	2	248	0.00	29.883 
20:30	83.2	83.2	83.6	47	60.8	0	2	248	0.00	29.881 
20:35	83.0	83.0	83.4	47	60.7	0	1	248	0.00	29.881 
20:40	82.8	82.8	83.2	47	60.5	1	3	248	0.00	29.881 
20:45	82.6	82.6	83.1	48	60.9	0	1	248	0.00	29.879 
20:50	82.4	82.4	83.0	49	61.3	0	1	248	0.00	29.879 
20:55	82.0	82.0	82.6	49	60.9	0	1	248	0.00	29.879 
21:00	81.8	81.8	82.6	50	61.3	0	1	248	0.00	29.879 
21:05	81.6	81.6	82.3	50	61.1	0	1	248	0.00	29.879 
21:10	81.4	81.4	82.1	50	60.9	0	0	---	0.00	29.879 
21:15	81.1	81.1	82.0	51	61.2	0	1	248	0.00	29.878 
21:20	80.9	80.9	81.9	52	61.6	0	1	248	0.00	29.878 
21:25	80.9	80.9	81.9	52	61.6	0	1	248	0.00	29.878 
21:30	80.7	80.7	81.7	52	61.4	0	2	248	0.00	29.878 
21:35	80.5	80.5	81.6	53	61.8	0	1	248	0.00	29.878 
21:40	80.1	80.1	81.3	54	61.9	0	0	---	0.00	29.878 
21:45	79.9	79.9	81.1	54	61.7	0	1	248	0.00	29.878 
21:50	79.6	79.6	80.9	55	62.0	0	0	---	0.00	29.878 
21:55	79.4	79.4	80.7	55	61.8	0	0	---	0.00	29.878 
22:00	79.0	79.0	80.4	56	61.9	0	0	---	0.00	29.879 
22:05	78.8	78.8	80.3	57	62.3	0	0	---	0.00	29.879 
22:10	78.6	78.6	80.1	57	62.1	0	0	---	0.00	29.879 
22:15	78.3	78.3	79.9	58	62.3	0	0	---	0.00	29.878 
22:20	78.1	78.1	79.7	58	62.1	0	0	---	0.00	29.878 
22:25	77.7	77.7	79.4	59	62.2	0	0	---	0.00	29.878 
22:30	77.6	77.6	79.3	60	62.6	0	0	---	0.00	29.880 
22:35	77.2	77.2	78.9	60	62.2	0	0	---	0.00	29.880 
22:40	77.0	77.0	78.8	61	62.5	0	0	---	0.00	29.880 
22:45	76.8	76.8	78.6	62	62.8	0	0	---	0.00	29.881 
22:50	76.7	76.7	78.5	62	62.7	0	0	---	0.00	29.881 
22:55	76.5	76.5	78.4	62	62.5	0	0	---	0.00	29.881 
23:00	76.3	76.3	78.2	63	62.8	0	0	---	0.00	29.880 
23:05	76.3	76.3	78.2	63	62.8	0	0	---	0.00	29.880 
23:10	76.3	76.3	78.2	64	63.2	0	0	---	0.00	29.880 
23:15	76.1	76.1	78.0	64	63.0	0	0	---	0.00	29.882 
23:20	76.1	76.1	78.0	64	63.0	0	0	---	0.00	29.882 
23:25	76.0	76.0	77.9	64	62.9	0	0	---	0.00	29.882 
23:30	76.0	76.0	77.9	65	63.4	0	0	---	0.00	29.882 
23:35	76.0	76.0	77.9	64	62.9	0	0	---	0.00	29.882 
23:40	76.0	76.0	77.9	64	62.9	0	0	---	0.00	29.882 
23:45	76.0	76.0	77.9	64	62.9	0	1	248	0.00	29.878 
23:50	76.0	76.0	77.9	64	62.9	0	0	---	0.00	29.878 
23:55	76.0	76.0	77.9	64	62.9	0	1	248	0.00	29.878 

CoCoRaHS
IN-AL-39
A2 Web Hosting
Creative Commons License
GoDaddy
search engine by freefind advanced

loaded 2018-11-17 18:21:54 • last modified 2010-11-18 10:43:29
Privacy PolicyDisclaimer
• wx.awcolley.com is powered by PmWiki v.2002016 •
• all content (unless otherwise noted) © 2018 A W Colley